createdAt,value
2022-09-07T00:00:54.053Z,18.08
2022-09-07T00:01:55.757Z,18.01
2022-09-07T00:02:57.598Z,18.14
2022-09-07T00:03:59.647Z,18.12
2022-09-07T00:05:01.414Z,18.13
2022-09-07T00:06:09.189Z,18.13
2022-09-07T00:07:10.921Z,18.12
2022-09-07T00:08:13.742Z,18.12
2022-09-07T00:09:15.441Z,18.13
2022-09-07T00:10:17.281Z,18.11
2022-09-07T00:11:19.852Z,18.09
2022-09-07T00:12:21.603Z,18.07
2022-09-07T00:13:25.679Z,18.05
2022-09-07T00:14:27.392Z,18.03
2022-09-07T00:15:29.152Z,17.97
2022-09-07T00:16:31.769Z,17.99
2022-09-07T00:17:33.518Z,17.98
2022-09-07T00:18:35.480Z,17.99
2022-09-07T00:19:37.216Z,17.97
2022-09-07T00:20:38.978Z,17.97
2022-09-07T00:21:40.858Z,17.95
2022-09-07T00:22:42.614Z,17.93
2022-09-07T00:23:44.981Z,17.93
2022-09-07T00:24:46.734Z,17.90
2022-09-07T00:25:52.293Z,17.90
2022-09-07T00:26:56.780Z,17.84
2022-09-07T00:27:59.437Z,17.73
2022-09-07T00:29:03.349Z,17.81
2022-09-07T00:30:06.378Z,17.80
2022-09-07T00:31:14.803Z,17.79
2022-09-07T00:32:16.736Z,17.68
2022-09-07T00:33:18.439Z,17.74
2022-09-07T00:34:20.224Z,17.75
2022-09-07T00:35:21.950Z,17.73
2022-09-07T00:36:23.839Z,17.72
2022-09-07T00:37:26.052Z,17.68
2022-09-07T00:38:27.893Z,17.66
2022-09-07T00:39:29.795Z,17.55
2022-09-07T00:40:31.642Z,17.51
2022-09-07T00:41:33.377Z,17.36
2022-09-07T00:42:35.104Z,17.42
2022-09-07T00:43:42.997Z,17.38
2022-09-07T00:44:44.681Z,17.30
2022-09-07T00:45:46.463Z,17.29
2022-09-07T00:46:48.246Z,17.33
2022-09-07T00:48:10.954Z,17.31
2022-09-07T00:49:21.630Z,17.19
2022-09-07T00:50:44.583Z,17.29
2022-09-07T00:51:54.656Z,17.28
2022-09-07T00:53:07.254Z,17.27
2022-09-07T00:54:26.745Z,17.21
2022-09-07T00:55:30.047Z,17.22
2022-09-07T00:56:35.044Z,17.21
2022-09-07T00:57:39.098Z,17.19
2022-09-07T00:58:43.850Z,17.17
2022-09-07T00:59:50.242Z,17.07
2022-09-07T01:00:52.294Z,17.18
2022-09-07T01:01:54.620Z,17.18
2022-09-07T01:02:58.357Z,17.17
2022-09-07T01:04:01.759Z,17.10
2022-09-07T01:05:42.062Z,17.19
2022-09-07T01:06:44.515Z,17.19
2022-09-07T01:07:46.745Z,17.11
2022-09-07T01:08:50.462Z,17.19
2022-09-07T01:09:52.693Z,17.18
2022-09-07T01:10:56.104Z,17.03
2022-09-07T01:12:00.098Z,17.15
2022-09-07T01:13:02.401Z,17.14
2022-09-07T01:14:09.535Z,17.11
2022-09-07T01:15:11.412Z,17.05
2022-09-07T01:16:31.809Z,17.06
2022-09-07T01:17:41.802Z,17.05
2022-09-07T01:19:15.010Z,16.88
2022-09-07T01:21:13.209Z,16.66
2022-09-07T01:22:30.041Z,16.49
2022-09-07T01:23:34.555Z,16.54
2022-09-07T01:24:42.762Z,16.51
2022-09-07T01:26:00.641Z,16.50
2022-09-07T01:27:30.293Z,16.50
2022-09-07T01:28:39.030Z,16.53
2022-09-07T01:29:44.574Z,16.56
2022-09-07T01:30:55.802Z,16.55
2022-09-07T01:32:18.925Z,16.54
2022-09-07T01:33:27.305Z,16.58
2022-09-07T01:34:29.026Z,16.59
2022-09-07T01:36:08.293Z,16.59
2022-09-07T01:37:22.041Z,16.62
2022-09-07T01:38:44.910Z,16.62
2022-09-07T01:40:11.956Z,16.64
2022-09-07T01:41:20.604Z,16.65
2022-09-07T01:42:30.622Z,16.65
2022-09-07T01:43:32.276Z,16.65
2022-09-07T01:44:53.429Z,16.62
2022-09-07T01:45:58.746Z,16.35
2022-09-07T01:47:38.762Z,16.40
2022-09-07T01:48:43.887Z,16.34
2022-09-07T01:50:05.199Z,16.24
2022-09-07T01:51:06.921Z,16.10
2022-09-07T01:52:36.565Z,16.13
2022-09-07T01:53:50.776Z,16.21
2022-09-07T01:55:00.154Z,16.17
2022-09-07T01:56:08.655Z,16.08
2022-09-07T01:57:19.431Z,16.19
2022-09-07T01:58:32.465Z,16.13
2022-09-07T02:00:10.978Z,16.23
2022-09-07T02:01:33.130Z,16.18
2022-09-07T02:02:42.948Z,16.04
2022-09-07T02:04:01.354Z,15.90
2022-09-07T02:05:14.636Z,15.67
2022-09-07T02:06:20.832Z,15.63
2022-09-07T02:07:35.030Z,15.56
2022-09-07T02:08:53.478Z,15.44
2022-09-07T02:10:23.647Z,15.42
2022-09-07T02:11:37.769Z,15.46
2022-09-07T02:12:42.475Z,15.49
2022-09-07T02:13:55.027Z,15.55
2022-09-07T02:15:01.941Z,15.62
2022-09-07T02:16:10.989Z,15.67
2022-09-07T02:17:33.958Z,15.69
2022-09-07T02:18:45.593Z,15.76
2022-09-07T02:19:52.713Z,15.80
2022-09-07T02:20:58.165Z,15.85
2022-09-07T02:22:05.581Z,15.81
2022-09-07T02:23:32.461Z,15.87
2022-09-07T02:24:40.299Z,15.81
2022-09-07T02:25:56.106Z,15.92
2022-09-07T02:27:02.204Z,15.93
2022-09-07T02:28:14.816Z,15.87
2022-09-07T02:29:16.540Z,16.00
2022-09-07T02:30:18.244Z,16.02
2022-09-07T02:31:20.511Z,16.05
2022-09-07T02:32:22.361Z,16.07
2022-09-07T02:33:24.346Z,16.04
2022-09-07T02:34:26.197Z,16.07
2022-09-07T02:35:27.930Z,16.14
2022-09-07T02:36:33.946Z,16.15
2022-09-07T02:37:37.289Z,16.07
2022-09-07T02:38:39.038Z,15.90
2022-09-07T02:39:40.871Z,15.96
2022-09-07T02:40:42.758Z,15.96
2022-09-07T02:41:46.322Z,15.92
2022-09-07T02:42:48.905Z,15.92
2022-09-07T02:43:50.656Z,16.00
2022-09-07T02:44:52.569Z,16.04
2022-09-07T02:46:20.887Z,16.09
2022-09-07T02:47:39.072Z,16.03
2022-09-07T02:49:05.694Z,16.07
2022-09-07T02:50:33.073Z,16.13
2022-09-07T02:52:01.836Z,16.15
2022-09-07T02:53:24.728Z,16.07
2022-09-07T02:54:44.957Z,16.04
2022-09-07T02:56:06.446Z,16.03
2022-09-07T02:57:46.670Z,16.05
2022-09-07T02:59:12.744Z,15.97
2022-09-07T03:00:20.999Z,16.00
2022-09-07T03:01:31.740Z,15.92
2022-09-07T03:03:15.571Z,15.86
2022-09-07T03:04:27.720Z,15.94
2022-09-07T03:05:59.088Z,15.96
2022-09-07T03:07:16.038Z,15.98
2022-09-07T03:08:26.047Z,16.02
2022-09-07T03:09:32.098Z,16.05
2022-09-07T03:10:34.503Z,16.05
2022-09-07T03:11:37.801Z,16.06
2022-09-07T03:12:40.758Z,16.12
2022-09-07T03:13:42.503Z,16.13
2022-09-07T03:14:44.606Z,16.13
2022-09-07T03:15:46.370Z,16.10
2022-09-07T03:16:50.955Z,16.11
2022-09-07T03:17:53.308Z,16.12
2022-09-07T03:18:55.028Z,16.12
2022-09-07T03:19:56.872Z,16.14
2022-09-07T03:20:58.676Z,16.16
2022-09-07T03:22:00.388Z,16.16
2022-09-07T03:23:02.099Z,16.08
2022-09-07T03:24:04.119Z,16.12
2022-09-07T03:25:06.529Z,16.09
2022-09-07T03:26:15.276Z,16.04
2022-09-07T03:27:17.002Z,16.12
2022-09-07T03:28:18.789Z,16.14
2022-09-07T03:29:20.533Z,16.13
2022-09-07T03:30:22.288Z,16.16
2022-09-07T03:31:24.194Z,16.10
2022-09-07T03:32:30.998Z,16.20
2022-09-07T03:33:32.711Z,16.22
2022-09-07T03:34:34.506Z,16.24
2022-09-07T03:35:36.278Z,16.27
2022-09-07T03:36:38.088Z,16.28
2022-09-07T03:37:39.810Z,16.28
2022-09-07T03:38:41.637Z,16.23
2022-09-07T03:39:43.411Z,16.23
2022-09-07T03:40:45.128Z,16.24
2022-09-07T03:41:47.043Z,15.94
2022-09-07T03:42:50.390Z,16.22
2022-09-07T03:43:52.768Z,16.21
2022-09-07T03:44:54.504Z,15.93
2022-09-07T03:46:00.679Z,16.09
2022-09-07T03:47:02.498Z,16.21
2022-09-07T03:48:04.301Z,16.18
2022-09-07T03:49:06.020Z,16.23
2022-09-07T03:50:08.144Z,16.17
2022-09-07T03:51:11.614Z,16.27
2022-09-07T03:52:13.380Z,16.28
2022-09-07T03:53:15.094Z,16.23
2022-09-07T03:54:16.805Z,16.30
2022-09-07T03:55:18.528Z,16.33
2022-09-07T03:56:22.876Z,16.33
2022-09-07T03:57:24.576Z,16.36
2022-09-07T03:58:28.281Z,16.36
2022-09-07T03:59:30.045Z,16.30
2022-09-07T04:00:31.815Z,16.39
2022-09-07T04:01:33.784Z,16.38
2022-09-07T04:02:35.594Z,16.34
2022-09-07T04:03:37.997Z,16.30
2022-09-07T04:04:39.720Z,16.34
2022-09-07T04:05:41.418Z,16.37
2022-09-07T04:06:43.394Z,16.30
2022-09-07T04:07:45.119Z,16.27
2022-09-07T04:08:47.146Z,16.35
2022-09-07T04:09:51.407Z,16.32
2022-09-07T04:10:53.132Z,16.32
2022-09-07T04:11:54.920Z,16.29
2022-09-07T04:12:56.903Z,16.27
2022-09-07T04:13:58.806Z,16.27
2022-09-07T04:15:00.553Z,16.25
2022-09-07T04:16:23.739Z,16.24
2022-09-07T04:17:25.535Z,15.95
2022-09-07T04:18:27.325Z,16.24
2022-09-07T04:19:30.157Z,16.22
2022-09-07T04:20:31.951Z,16.21
2022-09-07T04:21:34.369Z,16.30
2022-09-07T04:22:36.083Z,16.35
2022-09-07T04:23:39.724Z,16.43
2022-09-07T04:24:41.526Z,16.41
2022-09-07T04:25:50.412Z,16.53
2022-09-07T04:26:52.508Z,16.73
2022-09-07T04:27:56.107Z,16.81
2022-09-07T04:28:58.818Z,16.97
2022-09-07T04:30:00.562Z,17.14
2022-09-07T04:31:03.292Z,17.27
2022-09-07T04:32:05.155Z,17.40
2022-09-07T04:33:07.026Z,17.51
2022-09-07T04:34:09.829Z,17.58
2022-09-07T04:35:11.535Z,17.79
2022-09-07T04:36:13.875Z,17.94
2022-09-07T04:37:15.659Z,18.05
2022-09-07T04:38:17.569Z,18.09
2022-09-07T04:39:19.338Z,18.39
2022-09-07T04:40:21.062Z,18.56
2022-09-07T04:41:23.175Z,18.75
2022-09-07T04:42:24.912Z,18.89
2022-09-07T04:43:27.109Z,19.06
2022-09-07T04:44:28.872Z,19.18
2022-09-07T04:45:30.576Z,19.44
2022-09-07T04:46:34.687Z,19.60
2022-09-07T04:47:36.430Z,19.83
2022-09-07T04:48:38.135Z,20.01
2022-09-07T04:49:39.960Z,20.14
2022-09-07T04:50:41.717Z,20.43
2022-09-07T04:51:44.427Z,20.66
2022-09-07T04:52:46.267Z,20.84
2022-09-07T04:53:50.318Z,21.03
2022-09-07T04:54:52.081Z,21.21
2022-09-07T04:55:53.823Z,21.40
2022-09-07T04:56:55.560Z,21.60
2022-09-07T04:57:57.277Z,21.81
2022-09-07T04:59:00.862Z,21.96
2022-09-07T05:00:02.897Z,22.26
2022-09-07T05:01:06.496Z,22.51
2022-09-07T05:02:08.415Z,22.75
2022-09-07T05:03:10.246Z,22.89
2022-09-07T05:04:11.986Z,23.02
2022-09-07T05:05:13.871Z,23.13
2022-09-07T05:06:17.406Z,23.36
2022-09-07T05:07:19.164Z,23.31
2022-09-07T05:08:20.938Z,23.75
2022-09-07T05:09:22.637Z,23.91
2022-09-07T05:10:24.739Z,24.08
2022-09-07T05:11:29.692Z,24.27
2022-09-07T05:12:31.711Z,24.42
2022-09-07T05:13:33.614Z,24.50
2022-09-07T05:14:35.465Z,24.66
2022-09-07T05:15:37.192Z,24.78
2022-09-07T05:16:38.997Z,24.91
2022-09-07T05:17:43.238Z,25.10
2022-09-07T05:18:49.352Z,25.26
2022-09-07T05:19:51.083Z,25.37
2022-09-07T05:20:52.826Z,25.46
2022-09-07T05:21:57.225Z,25.60
2022-09-07T05:22:59.760Z,25.76
2022-09-07T05:24:02.647Z,25.82
2022-09-07T05:25:04.612Z,26.02
2022-09-07T05:26:06.736Z,26.21
2022-09-07T05:27:08.547Z,26.35
2022-09-07T05:28:10.812Z,26.46
2022-09-07T05:31:56.211Z,26.70
2022-09-07T05:32:58.556Z,26.75
2022-09-07T05:35:22.153Z,27.08
2022-09-07T05:36:27.005Z,27.08
2022-09-07T05:37:28.728Z,27.30
2022-09-07T05:38:30.580Z,27.40
2022-09-07T05:39:32.539Z,27.58
2022-09-07T05:40:39.876Z,27.69
2022-09-07T05:41:42.344Z,27.82
2022-09-07T05:42:44.051Z,27.96
2022-09-07T05:45:08.438Z,28.16
2022-09-07T05:46:10.969Z,28.19
2022-09-07T05:47:13.048Z,28.12
2022-09-07T05:48:14.776Z,28.24
2022-09-07T05:49:16.516Z,28.27
2022-09-07T05:50:18.322Z,28.45
2022-09-07T05:51:20.033Z,28.50
2022-09-07T05:52:21.778Z,28.61
2022-09-07T05:53:23.620Z,28.60
2022-09-07T05:54:25.665Z,28.77
2022-09-07T05:55:30.238Z,28.79
2022-09-07T05:56:36.437Z,28.87
2022-09-07T05:57:38.232Z,29.02
2022-09-07T05:58:40.141Z,29.06
2022-09-07T05:59:41.942Z,29.17
2022-09-07T06:00:44.368Z,29.23
2022-09-07T06:01:46.186Z,29.30
2022-09-07T06:02:48.826Z,29.39
2022-09-07T06:03:50.638Z,29.48
2022-09-07T06:04:52.424Z,29.53
2022-09-07T06:06:10.945Z,29.69
2022-09-07T06:07:22.438Z,29.77
2022-09-07T06:08:24.808Z,29.81
2022-09-07T06:09:30.354Z,29.80
2022-09-07T06:10:44.245Z,29.88
2022-09-07T06:11:46.337Z,29.99
2022-09-07T06:12:49.268Z,30.07
2022-09-07T06:13:52.255Z,30.10
2022-09-07T06:14:53.998Z,30.18
2022-09-07T06:16:00.862Z,30.34
2022-09-07T06:17:02.653Z,30.41
2022-09-07T06:18:04.386Z,30.43
2022-09-07T06:19:07.701Z,30.21
2022-09-07T06:20:09.946Z,30.23
2022-09-07T06:21:17.982Z,30.33
2022-09-07T06:22:19.689Z,30.57
2022-09-07T06:23:21.405Z,30.64
2022-09-07T06:24:23.180Z,30.76
2022-09-07T06:25:24.975Z,30.93
2022-09-07T06:26:26.689Z,31.04
2022-09-07T06:27:29.491Z,31.14
2022-09-07T06:28:33.933Z,31.26
2022-09-07T06:29:35.851Z,31.20
2022-09-07T06:30:37.755Z,31.13
2022-09-07T06:33:01.131Z,31.31
2022-09-07T06:34:02.869Z,30.97
2022-09-07T06:35:05.022Z,31.30
2022-09-07T06:36:11.111Z,31.41
2022-09-07T06:37:12.873Z,31.53
2022-09-07T06:38:14.581Z,31.70
2022-09-07T06:39:16.394Z,31.78
2022-09-07T06:40:18.116Z,31.82
2022-09-07T06:42:43.999Z,31.66
2022-09-07T06:43:46.224Z,31.81
2022-09-07T06:44:47.935Z,31.89
2022-09-07T06:45:54.619Z,32.03
2022-09-07T06:47:04.083Z,32.08
2022-09-07T06:48:06.492Z,32.27
2022-09-07T06:49:08.232Z,32.46
2022-09-07T06:50:10.246Z,32.47
2022-09-07T06:51:20.413Z,32.67
2022-09-07T06:52:22.561Z,32.70
2022-09-07T06:55:57.088Z,32.69
2022-09-07T06:56:58.782Z,32.72
2022-09-07T06:58:00.473Z,32.57
2022-09-07T06:59:02.338Z,32.33
2022-09-07T07:00:04.755Z,32.35
2022-09-07T07:01:10.379Z,32.48
2022-09-07T07:02:14.857Z,32.64
2022-09-07T07:03:16.883Z,32.84
2022-09-07T07:04:18.628Z,33.06
2022-09-07T07:05:20.355Z,33.14
2022-09-07T07:06:22.387Z,33.10
2022-09-07T07:07:24.114Z,33.33
2022-09-07T07:08:26.206Z,33.38
2022-09-07T07:09:28.237Z,33.55
2022-09-07T07:10:30.046Z,33.71
2022-09-07T07:11:31.811Z,33.82
2022-09-07T07:13:38.877Z,33.92
2022-09-07T07:14:44.607Z,34.07
2022-09-07T07:15:47.037Z,34.03
2022-09-07T07:16:48.767Z,33.91
2022-09-07T07:17:58.103Z,33.95
2022-09-07T07:19:01.140Z,34.05
2022-09-07T07:20:03.106Z,34.20
2022-09-07T07:21:10.965Z,34.06
2022-09-07T07:22:44.980Z,34.14
2022-09-07T07:23:35.271Z,34.13
2022-09-07T07:24:36.984Z,34.21
2022-09-07T07:25:38.703Z,34.34
2022-09-07T07:26:41.404Z,34.38
2022-09-07T07:27:44.246Z,34.52
2022-09-07T07:29:04.565Z,34.50
2022-09-07T07:30:06.839Z,33.73
2022-09-07T07:31:11.333Z,33.77
2022-09-07T07:32:14.847Z,33.57
2022-09-07T07:33:16.576Z,33.45
2022-09-07T07:34:18.325Z,33.24
2022-09-07T07:35:20.254Z,33.17
2022-09-07T07:36:27.097Z,33.36
2022-09-07T07:37:28.886Z,33.49
2022-09-07T07:42:39.938Z,32.80
2022-09-07T07:43:41.643Z,32.96
2022-09-07T07:44:43.299Z,32.88
2022-09-07T07:46:03.901Z,32.64
2022-09-07T07:47:07.025Z,32.09
2022-09-07T07:48:12.171Z,31.89
2022-09-07T07:49:13.824Z,31.89
2022-09-07T07:50:31.842Z,32.23
2022-09-07T07:52:49.842Z,32.15
2022-09-07T07:54:17.872Z,32.46
2022-09-07T07:56:41.225Z,32.33
2022-09-07T07:57:42.992Z,32.58
2022-09-07T07:58:46.791Z,32.55
2022-09-07T07:59:48.458Z,32.37
2022-09-07T08:00:54.585Z,32.59
2022-09-07T08:01:57.181Z,32.58
2022-09-07T08:02:58.909Z,32.23
2022-09-07T08:04:01.197Z,32.16
2022-09-07T08:05:02.859Z,31.99
2022-09-07T08:06:11.377Z,32.21
2022-09-07T08:07:13.276Z,32.35
2022-09-07T08:08:15.599Z,32.34
2022-09-07T08:09:17.374Z,31.94
2022-09-07T08:10:19.652Z,32.19
2022-09-07T08:11:22.204Z,32.32
2022-09-07T08:12:29.105Z,32.53
2022-09-07T08:13:33.919Z,32.55
2022-09-07T08:14:41.887Z,32.57
2022-09-07T08:15:46.995Z,32.68
2022-09-07T08:16:48.949Z,32.92
2022-09-07T08:17:50.765Z,33.33
2022-09-07T08:18:53.833Z,33.50
2022-09-07T08:19:55.988Z,33.77
2022-09-07T08:21:02.341Z,33.76
2022-09-07T08:22:04.222Z,33.97
2022-09-07T08:23:07.619Z,34.28
2022-09-07T08:24:09.434Z,34.25
2022-09-07T08:25:11.557Z,34.31
2022-09-07T08:26:13.369Z,34.53
2022-09-07T08:27:19.146Z,34.78
2022-09-07T08:28:22.262Z,34.41
2022-09-07T08:29:24.354Z,34.44
2022-09-07T08:30:26.146Z,34.59
2022-09-07T08:31:27.861Z,34.89
2022-09-07T08:32:29.790Z,34.99
2022-09-07T08:33:31.793Z,34.86
2022-09-07T08:34:36.325Z,34.77
2022-09-07T08:35:37.954Z,34.94
2022-09-07T08:36:39.632Z,34.72
2022-09-07T08:37:41.293Z,34.50
2022-09-07T08:38:43.107Z,34.39
2022-09-07T08:39:44.851Z,34.22
2022-09-07T08:40:47.070Z,34.24
2022-09-07T08:42:13.375Z,34.18
2022-09-07T08:43:43.864Z,34.57
2022-09-07T08:44:52.117Z,34.73
2022-09-07T08:46:02.234Z,34.87
2022-09-07T08:47:41.578Z,34.98
2022-09-07T08:48:44.141Z,35.05
2022-09-07T08:49:52.098Z,34.91
2022-09-07T08:51:00.866Z,34.80
2022-09-07T08:52:30.685Z,34.83
2022-09-07T08:53:32.568Z,34.48
2022-09-07T08:54:35.380Z,34.42
2022-09-07T08:55:43.429Z,34.38
2022-09-07T08:58:47.565Z,34.41
2022-09-07T09:00:11.751Z,34.65
2022-09-07T09:01:37.639Z,34.57
2022-09-07T09:02:43.967Z,34.35
2022-09-07T09:05:22.896Z,33.91
2022-09-07T09:06:27.591Z,33.82
2022-09-07T09:07:44.245Z,33.38
2022-09-07T09:09:06.408Z,33.08
2022-09-07T09:10:20.288Z,32.95
2022-09-07T09:11:21.938Z,33.27
2022-09-07T09:12:45.431Z,33.20
2022-09-07T09:14:06.528Z,33.58
2022-09-07T09:15:13.056Z,33.93
2022-09-07T09:16:24.097Z,33.67
2022-09-07T09:17:34.821Z,33.91
2022-09-07T09:18:54.515Z,34.11
2022-09-07T09:20:02.002Z,34.25
2022-09-07T09:21:07.994Z,34.35
2022-09-07T09:22:13.746Z,34.32
2022-09-07T09:23:25.896Z,34.09
2022-09-07T09:24:37.649Z,33.42
2022-09-07T09:26:02.113Z,33.04
2022-09-07T09:27:04.035Z,32.60
2022-09-07T09:28:05.893Z,32.67
2022-09-07T09:29:22.127Z,32.14
2022-09-07T09:30:24.867Z,31.74
2022-09-07T09:31:34.163Z,31.46
2022-09-07T09:32:35.966Z,31.36
2022-09-07T09:33:37.652Z,31.31
2022-09-07T09:34:39.326Z,31.41
2022-09-07T09:35:41.446Z,31.75
2022-09-07T09:36:48.007Z,32.09
2022-09-07T09:37:49.716Z,32.22
2022-09-07T09:38:51.683Z,32.36
2022-09-07T09:40:00.670Z,32.31
2022-09-07T09:41:23.572Z,31.81
2022-09-07T09:42:35.128Z,31.93
2022-09-07T09:43:43.562Z,32.21
2022-09-07T09:44:45.654Z,32.15
2022-09-07T09:47:36.178Z,32.52
2022-09-07T09:48:40.489Z,32.82
2022-09-07T09:49:45.081Z,32.86
2022-09-07T09:52:29.643Z,31.70
2022-09-07T09:53:40.372Z,31.80
2022-09-07T09:54:43.605Z,31.73
2022-09-07T09:55:52.945Z,31.67
2022-09-07T09:56:54.848Z,31.97
2022-09-07T10:05:00.643Z,32.52
2022-09-07T10:06:06.727Z,32.67
2022-09-07T10:07:28.575Z,32.85
2022-09-07T10:08:32.776Z,32.64
2022-09-07T10:09:40.586Z,32.51
2022-09-07T10:11:05.920Z,32.49
2022-09-07T10:12:32.185Z,32.73
2022-09-07T10:13:35.438Z,32.69
2022-09-07T10:14:46.831Z,32.58
2022-09-07T10:15:53.890Z,32.47
2022-09-07T10:16:56.331Z,32.35
2022-09-07T10:17:59.687Z,32.44
2022-09-07T10:19:03.083Z,32.37
2022-09-07T10:20:16.697Z,32.22
2022-09-07T10:21:30.278Z,32.02
2022-09-07T10:22:38.965Z,31.58
2022-09-07T10:23:41.119Z,31.15
2022-09-07T10:24:42.875Z,31.49
2022-09-07T10:25:44.623Z,31.63
2022-09-07T10:26:48.753Z,31.47
2022-09-07T10:28:05.912Z,31.52
2022-09-07T10:29:11.758Z,31.97
2022-09-07T10:30:16.620Z,31.92
2022-09-07T10:31:31.891Z,31.73
2022-09-07T10:33:17.522Z,31.99
2022-09-07T10:34:45.060Z,32.33
2022-09-07T10:36:07.565Z,32.56
2022-09-07T10:37:25.818Z,32.73
2022-09-07T10:38:34.605Z,32.68
2022-09-07T10:39:49.368Z,32.77
2022-09-07T10:41:07.472Z,32.83
2022-09-07T10:42:09.368Z,32.94
2022-09-07T10:43:39.018Z,33.19
2022-09-07T10:45:14.700Z,33.04
2022-09-07T10:48:26.446Z,32.61
2022-09-07T10:50:21.926Z,32.82
2022-09-07T10:51:17.987Z,32.73
2022-09-07T10:52:45.965Z,33.00
2022-09-07T10:55:36.695Z,33.75
2022-09-07T10:56:47.338Z,33.97
2022-09-07T10:58:16.717Z,33.87
2022-09-07T11:01:31.210Z,33.26
2022-09-07T11:04:24.810Z,33.08
2022-09-07T11:05:48.120Z,33.34
2022-09-07T11:06:55.476Z,33.54
2022-09-07T11:08:15.958Z,33.83
2022-09-07T11:09:29.388Z,33.94
2022-09-07T11:10:36.864Z,34.12
2022-09-07T11:12:27.996Z,34.31
2022-09-07T11:13:40.974Z,33.82
2022-09-07T11:15:12.969Z,33.31
2022-09-07T11:17:46.533Z,33.08
2022-09-07T11:19:35.118Z,33.25
2022-09-07T11:20:33.988Z,33.55
2022-09-07T11:21:56.751Z,33.52
2022-09-07T11:22:58.468Z,33.51
2022-09-07T11:24:09.459Z,33.65
2022-09-07T11:25:32.802Z,33.41
2022-09-07T11:26:50.798Z,33.13
2022-09-07T11:27:55.811Z,32.67
2022-09-07T11:30:57.844Z,31.89
2022-09-07T11:32:17.714Z,32.21
2022-09-07T11:33:28.564Z,32.39
2022-09-07T11:34:40.832Z,32.48
2022-09-07T11:35:48.865Z,32.69
2022-09-07T11:36:58.583Z,32.77
2022-09-07T11:38:06.531Z,32.86
2022-09-07T11:39:18.725Z,33.05
2022-09-07T11:40:53.176Z,33.10
2022-09-07T11:43:41.489Z,32.97
2022-09-07T11:44:51.872Z,32.46
2022-09-07T11:45:59.293Z,32.24
2022-09-07T11:47:08.527Z,31.94
2022-09-07T11:48:19.873Z,31.91
2022-09-07T11:49:30.653Z,31.66
2022-09-07T11:50:38.563Z,31.45
2022-09-07T11:51:42.304Z,31.40
2022-09-07T11:52:56.202Z,31.50
2022-09-07T11:54:06.752Z,31.63
2022-09-07T11:55:12.902Z,31.83
2022-09-07T11:56:29.020Z,31.78
2022-09-07T11:57:42.519Z,31.79
2022-09-07T11:58:59.095Z,31.60
2022-09-07T12:00:12.231Z,31.68
2022-09-07T12:01:39.604Z,31.73
2022-09-07T12:02:59.822Z,31.85
2022-09-07T12:04:12.019Z,31.85
2022-09-07T12:05:38.259Z,31.81
2022-09-07T12:06:54.975Z,31.45
2022-09-07T12:07:59.466Z,31.38
2022-09-07T12:09:01.051Z,31.31
2022-09-07T12:10:20.932Z,31.14
2022-09-07T12:11:54.687Z,31.16
2022-09-07T12:13:03.047Z,31.25
2022-09-07T12:14:27.950Z,31.38
2022-09-07T12:16:05.779Z,31.21
2022-09-07T12:17:10.458Z,31.16
2022-09-07T12:18:32.013Z,30.91
2022-09-07T12:19:34.238Z,30.82
2022-09-07T12:20:42.530Z,30.66
2022-09-07T12:21:53.204Z,30.40
2022-09-07T12:23:04.242Z,30.37
2022-09-07T12:24:38.849Z,30.24
2022-09-07T12:25:40.990Z,30.27
2022-09-07T12:26:42.605Z,30.30
2022-09-07T12:27:44.385Z,30.32
2022-09-07T12:28:46.077Z,30.25
2022-09-07T12:30:13.146Z,30.30
2022-09-07T12:31:57.276Z,30.31
2022-09-07T12:33:06.004Z,30.34
2022-09-07T12:34:32.672Z,30.46
2022-09-07T12:35:34.324Z,30.41
2022-09-07T12:36:35.995Z,30.34
2022-09-07T12:37:40.256Z,30.21
2022-09-07T12:39:19.618Z,29.97
2022-09-07T12:40:27.586Z,29.89
2022-09-07T12:43:44.672Z,29.86
2022-09-07T12:44:46.373Z,29.96
2022-09-07T12:45:51.854Z,29.94
2022-09-07T12:46:59.086Z,30.04
2022-09-07T12:48:23.903Z,30.04
2022-09-07T12:49:44.324Z,30.04
2022-09-07T12:51:10.262Z,29.87
2022-09-07T12:52:40.397Z,29.94
2022-09-07T12:53:57.983Z,29.80
2022-09-07T12:55:27.486Z,29.73
2022-09-07T12:56:47.067Z,29.52
2022-09-07T12:58:22.984Z,29.56
2022-09-07T12:59:24.616Z,29.34
2022-09-07T13:00:55.404Z,29.28
2022-09-07T13:02:21.551Z,29.25
2022-09-07T13:03:52.808Z,29.30
2022-09-07T13:05:36.345Z,29.32
2022-09-07T13:07:02.789Z,29.04
2022-09-07T13:08:30.839Z,28.96
2022-09-07T13:09:32.593Z,29.13
2022-09-07T13:10:37.144Z,29.08
2022-09-07T13:11:40.271Z,29.08
2022-09-07T13:12:57.022Z,29.19
2022-09-07T13:14:26.972Z,29.29
2022-09-07T13:15:41.102Z,29.27
2022-09-07T13:18:12.600Z,29.26
2022-09-07T13:19:46.197Z,29.28
2022-09-07T13:21:07.967Z,29.28
2022-09-07T13:22:29.691Z,29.38
2022-09-07T13:23:31.658Z,29.35
2022-09-07T13:24:46.257Z,29.40
2022-09-07T13:25:51.933Z,29.41
2022-09-07T13:27:05.870Z,29.50
2022-09-07T13:28:52.734Z,29.37
2022-09-07T13:30:22.401Z,29.36
2022-09-07T13:31:59.068Z,29.35
2022-09-07T13:33:25.278Z,29.29
2022-09-07T13:34:32.668Z,29.34
2022-09-07T13:35:35.405Z,29.41
2022-09-07T13:36:40.620Z,29.45
2022-09-07T13:37:52.510Z,29.35
2022-09-07T13:38:55.563Z,29.36
2022-09-07T13:39:58.798Z,29.20
2022-09-07T13:41:26.292Z,29.17
2022-09-07T13:42:27.896Z,29.12
2022-09-07T13:43:30.684Z,29.19
2022-09-07T13:44:34.635Z,29.19
2022-09-07T13:45:54.876Z,29.20
2022-09-07T13:47:13.350Z,29.29
2022-09-07T13:48:41.034Z,29.35
2022-09-07T13:49:51.406Z,29.49
2022-09-07T13:51:05.938Z,29.39
2022-09-07T13:52:22.480Z,29.27
2022-09-07T13:53:33.480Z,29.20
2022-09-07T13:55:16.509Z,29.12
2022-09-07T13:56:26.986Z,29.02
2022-09-07T13:57:32.993Z,29.04
2022-09-07T13:58:43.659Z,29.01
2022-09-07T13:59:47.828Z,28.97
2022-09-07T14:00:53.995Z,28.86
2022-09-07T14:01:57.223Z,28.92
2022-09-07T14:03:07.475Z,28.89
2022-09-07T14:04:27.231Z,28.69
2022-09-07T14:05:28.996Z,28.81
2022-09-07T14:06:33.389Z,28.92
2022-09-07T14:07:35.240Z,29.11
2022-09-07T14:08:39.824Z,29.23
2022-09-07T14:09:42.318Z,29.23
2022-09-07T14:10:48.702Z,29.12
2022-09-07T14:11:52.713Z,29.11
2022-09-07T14:13:14.591Z,29.22
2022-09-07T14:14:26.396Z,29.31
2022-09-07T14:15:40.588Z,29.23
2022-09-07T14:16:45.729Z,29.14
2022-09-07T14:17:48.391Z,28.98
2022-09-07T14:18:50.067Z,28.97
2022-09-07T14:19:52.234Z,29.03
2022-09-07T14:20:54.162Z,29.01
2022-09-07T14:22:06.824Z,29.07
2022-09-07T14:23:21.101Z,29.13
2022-09-07T14:24:28.881Z,29.27
2022-09-07T14:26:16.013Z,29.28
2022-09-07T14:26:53.107Z,29.26
2022-09-07T14:27:56.411Z,29.20
2022-09-07T14:28:58.225Z,29.23
2022-09-07T14:30:29.980Z,29.28
2022-09-07T14:31:32.445Z,29.08
2022-09-07T14:32:34.274Z,29.23
2022-09-07T14:33:36.124Z,29.10
2022-09-07T14:34:38.288Z,29.00
2022-09-07T14:35:41.497Z,28.85
2022-09-07T14:36:46.236Z,28.83
2022-09-07T14:37:49.999Z,28.91
2022-09-07T14:39:07.245Z,28.95
2022-09-07T14:40:38.614Z,28.76
2022-09-07T14:41:42.088Z,28.68
2022-09-07T14:42:46.554Z,28.74
2022-09-07T14:43:52.484Z,28.79
2022-09-07T14:45:18.326Z,28.75
2022-09-07T14:46:27.613Z,28.60
2022-09-07T14:47:34.056Z,28.38
2022-09-07T14:48:39.359Z,28.36
2022-09-07T14:49:41.726Z,28.39
2022-09-07T14:50:57.247Z,28.46
2022-09-07T14:52:19.707Z,28.49
2022-09-07T14:53:36.861Z,28.64
2022-09-07T14:54:38.599Z,28.61
2022-09-07T14:55:45.799Z,28.60
2022-09-07T14:57:05.462Z,28.46
2022-09-07T14:58:25.390Z,28.40
2022-09-07T14:59:43.020Z,28.44
2022-09-07T15:02:35.688Z,28.23
2022-09-07T15:03:40.105Z,28.28
2022-09-07T15:04:41.774Z,28.16
2022-09-07T15:05:48.196Z,28.17
2022-09-07T15:07:05.310Z,28.08
2022-09-07T15:08:39.002Z,28.06
2022-09-07T15:09:40.654Z,28.05
2022-09-07T15:11:32.510Z,28.03
2022-09-07T15:12:36.110Z,27.87
2022-09-07T15:13:45.174Z,27.77
2022-09-07T15:14:47.956Z,27.87
2022-09-07T15:16:02.281Z,27.91
2022-09-07T15:18:56.744Z,27.53
2022-09-07T15:19:58.519Z,27.58
2022-09-07T15:21:00.160Z,27.58
2022-09-07T15:22:10.487Z,27.62
2022-09-07T15:23:14.966Z,27.58
2022-09-07T15:24:16.668Z,27.56
2022-09-07T15:25:18.323Z,27.54
2022-09-07T15:27:42.377Z,27.34
2022-09-07T15:30:06.336Z,27.24
2022-09-07T15:32:34.148Z,27.35
2022-09-07T15:33:35.920Z,27.25
2022-09-07T15:34:37.630Z,27.36
2022-09-07T15:35:39.281Z,27.40
2022-09-07T15:36:43.431Z,27.30
2022-09-07T15:38:01.374Z,27.26
2022-09-07T15:39:04.198Z,27.25